首页
METAR-TAF:

METAR-TAF

机场 :

列日机场

列日, 比利时

纬度: 50-39N, 经度: 005-27E, 海拔: 186米

当前天气观测

该预报发布于39分钟前的14:50 UTC
风速2节,风向多变
温度 24°C
湿度 47%
气压 1018 hPa
能见度10公里或以上
1500米以下无云,无积雨云

METAR: EBLG 171450Z VRB02KT CAVOK 24/12 Q1018 NOSIG

时间: 17:29 (15:29 UTC)

预报

该预报发布于4小时和19分钟前的11:10 UTC
预报有效从17日的 12点(UTC)到 18日的 18点(UTC)
风速3节,风向多变
能见度10公里或以上
1500米以下无云,无积雨云

TAF: EBLG 171110Z 1712/1818 VRB03KT CAVOK

超过4000个机场的气象观测和天气预报(METAR&TAF报告)。

可查询的气象台以黄色和红色小点在地图上表示。

将鼠标移到小点上方,可查看气象台名称。

然后点击查看天气观测和预报。

如需切换地图:点击带黑十字的绿色按钮放大地图;点击带横线的绿色按钮缩小地图;或者点击绿色箭头查看邻近地区的地图。


METAR-TAF: